Time;durP1;ratioP1;P1;durP2;ratioP2;P2;SDS_P1;SDS_P2;PMS_P1;PMS_P2;Temp;Humidity;BMP_temperature;BMP_pressure;BME280_temperature;BME280_humidity;BME280_pressure;Samples;Min_cycle;Max_cycle;Signal;HPM_P1;HPM_P2
2022/04/12 00:00:12;;;;;;;;;2.00;2.00;;;;;22.17;38.72;100257.31;5102788;27;62363;-77
2022/04/12 00:02:37;;;;;;;;;2.00;2.00;;;;;22.14;38.99;100249.34;5102260;27;62141;-77
2022/04/12 00:05:03;;;;;;;;;3.75;3.00;;;;;22.09;38.89;100254.75;5097421;27;61991;-78
2022/04/12 00:07:28;;;;;;;;;2.00;2.00;;;;;22.09;38.86;100264.53;5082126;27;61885;-77
2022/04/12 00:09:54;;;;;;;;;4.00;1.00;;;;;22.06;38.85;100249.41;5075536;27;61899;-77
2022/04/12 00:12:19;;;;;;;;;3.50;2.00;;;;;22.09;38.94;100252.06;5060450;27;63770;-77
2022/04/12 00:14:45;;;;;;;;;2.50;2.50;;;;;22.04;38.88;100256.56;5101490;27;61976;-77
2022/04/12 00:19:55;;;;;;;;;3.00;3.00;;;;;22.01;39.24;100246.78;5102735;27;61777;-77
2022/04/12 00:22:20;;;;;;;;;2.00;2.00;;;;;22.01;39.21;100251.25;5101808;27;61818;-77
2022/04/12 00:24:46;;;;;;;;;2.75;2.75;;;;;21.95;39.35;100256.66;5071329;27;61861;-77
2022/04/12 00:27:11;;;;;;;;;3.00;2.75;;;;;21.92;39.35;100252.25;5062044;28;62474;-77
2022/04/12 00:29:36;;;;;;;;;5.50;3.50;;;;;21.90;39.43;100255.84;5079128;27;62044;-77
2022/04/12 00:32:02;;;;;;;;;2.50;2.50;;;;;21.88;39.45;100257.66;5081450;27;62576;-77
2022/04/12 00:34:27;;;;;;;;;4.50;3.00;;;;;21.83;39.54;100260.34;5081856;27;61829;-78
2022/04/12 00:36:53;;;;;;;;;3.00;3.00;;;;;21.82;39.98;100266.59;5081960;27;62044;-78
2022/04/12 00:39:18;;;;;;;;;3.25;3.00;;;;;21.77;39.66;100260.44;5080245;27;61980;-78
2022/04/12 00:41:44;;;;;;;;;3.00;3.00;;;;;21.75;39.86;100257.78;5060734;28;62757;-77
2022/04/12 00:44:09;;;;;;;;;3.00;3.00;;;;;21.73;39.83;100256.03;5084723;27;61786;-77
2022/04/12 00:46:35;;;;;;;;;1.25;1.25;;;;;21.71;39.84;100258.69;5102267;27;61771;-78
2022/04/12 00:49:01;;;;;;;;;3.00;3.00;;;;;21.69;39.74;100256.94;5092009;27;61801;-78
2022/04/12 00:51:27;;;;;;;;;3.75;2.00;;;;;21.65;39.94;100248.94;5078527;27;61846;-77
2022/04/12 00:53:54;;;;;;;;;4.00;4.00;;;;;21.63;40.18;100247.19;5078607;27;61877;-78
2022/04/12 00:56:19;;;;;;;;;4.25;3.00;;;;;21.57;40.24;100244.56;5081768;28;62228;-78
2022/04/12 00:58:49;;;;;;;;;2.50;2.50;;;;;21.57;40.47;100239.22;5087748;27;62268;-78
2022/04/12 01:01:14;;;;;;;;;4.00;3.50;;;;;21.55;40.44;100249.03;5101574;27;61742;-78
2022/04/12 01:03:40;;;;;;;;;2.00;2.00;;;;;21.52;40.32;100247.28;5089880;27;62011;-78
2022/04/12 01:06:06;;;;;;;;;4.00;3.00;;;;;21.51;40.49;100244.63;5061525;28;61712;-78
2022/04/12 01:08:31;;;;;;;;;3.50;3.25;;;;;21.50;40.69;100243.75;5067186;27;61836;-78
2022/04/12 01:10:59;;;;;;;;;3.00;3.00;;;;;21.43;40.50;100250.06;5080818;27;62321;-78
2022/04/12 01:13:24;;;;;;;;;3.00;2.00;;;;;21.44;40.55;100246.47;5085653;27;61879;-78
2022/04/12 01:15:49;;;;;;;;;3.75;3.75;;;;;21.39;40.54;100242.94;5101665;27;62099;-78
2022/04/12 01:18:15;;;;;;;;;3.50;3.50;;;;;21.34;40.70;100237.66;5098937;27;61928;-77
2022/04/12 01:20:41;;;;;;;;;3.00;2.00;;;;;21.33;40.72;100237.66;5070042;27;61700;-78
2022/04/12 01:23:14;;;;;;;;;4.25;3.25;;;;;21.30;40.50;100246.56;5064593;27;61900;-78
2022/04/12 01:25:40;;;;;;;;;2.00;2.00;;;;;21.27;40.74;100248.38;5102903;27;62195;-77
2022/04/12 01:28:11;;;;;;;;;3.75;3.00;;;;;21.22;40.66;100243.94;5104188;27;61940;-78
2022/04/12 01:30:36;;;;;;;;;3.00;3.00;;;;;21.20;40.65;100239.53;5084378;27;61859;-77
2022/04/12 01:33:03;;;;;;;;;3.50;2.25;;;;;21.15;40.90;100238.69;5102082;27;61850;-78
2022/04/12 01:35:28;;;;;;;;;3.00;3.00;;;;;;;;5092931;27;61845;-78
2022/04/12 01:37:54;;;;;;;;;3.25;3.25;;;;;21.10;40.81;100243.16;5085388;27;61805;-78
2022/04/12 01:40:19;;;;;;;;;3.00;2.00;;;;;21.04;41.03;100246.78;5104677;27;62678;-78
2022/04/12 01:42:45;;;;;;;;;3.00;3.00;;;;;21.01;41.07;100252.13;5105067;27;61855;-78
2022/04/12 01:45:10;;;;;;;;;4.00;3.00;;;;;21.00;41.20;100261.03;5104925;27;61750;-78
2022/04/12 01:47:36;;;;;;;;;3.00;3.00;;;;;20.95;41.41;100265.50;5104985;27;61844;-78
2022/04/12 01:50:03;;;;;;;;;2.25;2.00;;;;;20.95;41.16;100270.84;5084309;27;62050;-78
2022/04/12 01:52:29;;;;;;;;;5.50;3.50;;;;;20.92;41.51;100262.88;5077432;27;61941;-78
2022/04/12 01:54:54;;;;;;;;;2.00;2.00;;;;;20.91;41.93;100272.66;5104666;27;61969;-78
2022/04/12 01:57:19;;;;;;;;;3.00;3.00;;;;;20.89;41.87;100265.53;5105007;27;61812;-78
2022/04/12 01:59:45;;;;;;;;;2.00;2.00;;;;;20.88;41.98;100266.44;5083934;27;61715;-78
2022/04/12 02:02:10;;;;;;;;;7.00;4.75;;;;;20.83;42.04;100261.16;5085055;27;62245;-78
2022/04/12 02:04:36;;;;;;;;;4.00;2.25;;;;;20.78;42.17;100258.50;5075879;27;61957;-78
2022/04/12 02:07:01;;;;;;;;;4.00;3.50;;;;;20.74;42.26;100256.75;5069905;27;61791;-78
2022/04/12 02:09:27;;;;;;;;;3.50;3.50;;;;;20.70;42.41;100243.44;5103947;27;61682;-78
2022/04/12 02:11:55;;;;;;;;;6.50;5.25;;;;;20.70;42.26;100238.13;5103202;27;62048;-77
2022/04/12 02:14:22;;;;;;;;;3.00;3.00;;;;;20.70;42.38;100235.44;5104588;27;61794;-77
2022/04/12 02:16:47;;;;;;;;;2.75;2.75;;;;;20.71;42.03;100232.75;5102439;27;61820;-77
2022/04/12 02:19:12;;;;;;;;;5.00;3.00;;;;;20.70;42.35;100228.31;5076074;28;61912;-77
2022/04/12 02:21:38;;;;;;;;;2.25;2.25;;;;;20.69;42.37;100233.66;5071809;27;61744;-77
2022/04/12 02:24:04;;;;;;;;;4.00;3.00;;;;;20.62;42.28;100231.03;5095591;27;62139;-77
2022/04/12 02:26:29;;;;;;;;;3.75;3.75;;;;;20.63;42.52;100235.47;5104635;27;61651;-77
2022/04/12 02:28:54;;;;;;;;;3.00;3.00;;;;;20.62;42.63;100232.81;5103290;27;61760;-77
2022/04/12 02:31:20;;;;;;;;;3.00;3.00;;;;;20.59;42.65;100225.72;5120024;27;61913;-77
2022/04/12 02:33:46;;;;;;;;;3.25;2.50;;;;;20.59;42.67;100223.06;5095369;27;61835;-77
2022/04/12 02:36:11;;;;;;;;;3.00;3.00;;;;;20.61;42.36;100223.94;5079945;27;61888;-77
2022/04/12 02:38:37;;;;;;;;;2.00;2.00;;;;;20.64;42.14;100228.34;5077420;27;62603;-77
2022/04/12 02:41:02;;;;;;;;;4.75;4.00;;;;;20.61;42.43;100239.94;5103959;27;61889;-77
2022/04/12 02:43:28;;;;;;;;;2.75;2.75;;;;;20.65;42.29;100258.56;5087067;27;62620;-77
2022/04/12 02:45:53;;;;;;;;;4.00;4.00;;;;;20.67;42.21;100249.66;5084025;27;61774;-77
2022/04/12 02:48:18;;;;;;;;;2.25;2.25;;;;;20.66;42.39;100244.34;5082898;27;63257;-77
2022/04/12 02:50:44;;;;;;;;;3.00;3.00;;;;;20.63;42.07;100239.94;5066608;27;61716;-77
2022/04/12 02:53:09;;;;;;;;;2.50;2.00;;;;;20.63;41.91;100240.81;5084813;27;62151;-77
2022/04/12 02:55:35;;;;;;;;;3.25;2.25;;;;;20.60;41.90;100242.59;5099509;27;62058;-77
2022/04/12 02:58:00;;;;;;;;;5.50;3.25;;;;;20.61;42.02;100241.72;5095425;27;61834;-77
2022/04/12 03:00:26;;;;;;;;;3.25;3.25;;;;;20.64;42.07;100233.69;5102374;27;61811;-77
2022/04/12 03:02:51;;;;;;;;;5.50;5.00;;;;;20.64;42.06;100236.34;5092752;27;61953;-78
2022/04/12 03:05:16;;;;;;;;;2.00;2.00;;;;;20.59;42.11;100225.72;5082714;27;62145;-77
2022/04/12 03:07:42;;;;;;;;;4.75;4.50;;;;;20.56;42.16;100231.00;5090607;27;63366;-77
2022/04/12 03:10:08;;;;;;;;;2.75;2.00;;;;;20.53;42.03;100212.38;5103732;27;61939;-77
2022/04/12 03:12:33;;;;;;;;;4.25;3.00;;;;;20.46;42.05;100210.66;5087687;27;61818;-77
2022/04/12 03:14:59;;;;;;;;;8.00;4.25;;;;;20.42;42.18;100193.78;5098837;27;62144;-78
2022/04/12 03:17:25;;;;;;;;;11.00;5.75;;;;;20.40;42.16;100200.03;5082248;27;62941;-78
2022/04/12 03:19:51;;;;;;;;;6.00;3.00;;;;;20.34;42.42;100205.38;5082264;27;61928;-78
2022/04/12 03:22:16;;;;;;;;;2.75;2.75;;;;;20.32;42.49;100215.16;5066270;27;61751;-78
2022/04/12 03:24:42;;;;;;;;;2.75;2.75;;;;;20.35;42.28;100204.47;5073600;27;61992;-78
2022/04/12 03:27:07;;;;;;;;;2.75;2.75;;;;;20.30;42.27;100207.16;5102650;27;61760;-77
2022/04/12 03:29:32;;;;;;;;;3.25;2.75;;;;;20.26;42.28;100213.41;5097983;27;62001;-78
2022/04/12 03:31:59;;;;;;;;;3.00;3.00;;;;;20.26;42.23;100205.41;5083238;27;62664;-78
2022/04/12 03:34:24;;;;;;;;;6.50;3.00;;;;;20.29;42.17;100207.16;5080973;27;62221;-78
2022/04/12 03:36:49;;;;;;;;;0.00;0.00;;;;;20.26;42.12;100204.53;5097941;27;63746;-77
2022/04/12 03:39:18;;;;;;;;;3.00;3.00;;;;;20.28;41.85;100203.63;5098659;27;61760;-77
2022/04/12 03:41:47;;;;;;;;;3.00;3.00;;;;;20.29;41.86;100217.81;5103166;27;62038;-77
2022/04/12 03:44:13;;;;;;;;;3.25;2.00;;;;;20.32;41.94;100224.03;5087357;27;61899;-77
2022/04/12 03:46:39;;;;;;;;;3.00;2.00;;;;;20.30;42.08;100241.81;5082010;28;61894;-78
2022/04/12 03:49:04;;;;;;;;;2.00;2.00;;;;;20.32;41.93;100247.16;5088998;27;61903;-78
2022/04/12 03:51:30;;;;;;;;;4.00;3.00;;;;;20.32;41.93;100244.47;5063744;27;62119;-78
2022/04/12 03:53:56;;;;;;;;;4.00;2.75;;;;;20.31;41.95;100240.94;5082637;27;61941;-77
2022/04/12 03:56:22;;;;;;;;;4.00;4.00;;;;;20.31;41.93;100232.03;5097307;27;63883;-77
2022/04/12 03:58:47;;;;;;;;;3.00;3.00;;;;;20.25;41.89;100216.97;5101723;27;62033;-78
2022/04/12 04:01:12;;;;;;;;;2.00;2.00;;;;;20.18;41.72;100208.13;5102832;27;62096;-78
2022/04/12 04:03:38;;;;;;;;;3.50;2.25;;;;;20.16;41.67;100209.91;5099299;27;62028;-78
2022/04/12 04:06:04;;;;;;;;;5.50;3.25;;;;;20.12;41.38;100202.81;5098431;27;61900;-78
2022/04/12 04:08:34;;;;;;;;;4.25;3.00;;;;;20.08;41.41;100203.72;5117926;27;62123;-77
2022/04/12 04:11:01;;;;;;;;;3.50;2.25;;;;;20.11;41.59;100211.69;5102818;27;61927;-78
2022/04/12 04:13:30;;;;;;;;;2.25;2.25;;;;;20.14;41.74;100217.03;5086810;27;61744;-78
2022/04/12 04:15:56;;;;;;;;;4.25;2.50;;;;;20.14;41.56;100227.69;5080713;27;61878;-78
2022/04/12 04:18:22;;;;;;;;;3.00;3.00;;;;;20.16;41.37;100225.88;5083336;27;61717;-78
2022/04/12 04:20:48;;;;;;;;;4.00;2.50;;;;;20.17;41.23;100230.31;5082532;27;61973;-78
2022/04/12 04:23:13;;;;;;;;;3.50;2.00;;;;;20.15;41.19;100229.44;5082874;27;62057;-78
2022/04/12 04:25:39;;;;;;;;;3.00;1.00;;;;;20.13;40.71;100230.34;5081096;27;62611;-78
2022/04/12 04:28:07;;;;;;;;;2.00;2.00;;;;;20.11;40.63;100232.13;5100943;27;61741;-78
2022/04/12 04:30:33;;;;;;;;;2.50;2.00;;;;;20.10;40.75;100235.69;5067938;27;62015;-78
2022/04/12 04:32:59;;;;;;;;;2.00;2.00;;;;;20.07;40.52;100238.34;5065008;27;61735;-78
2022/04/12 04:35:25;;;;;;;;;2.00;2.00;;;;;20.04;40.82;100236.59;5096899;27;63650;-78
2022/04/12 04:37:51;;;;;;;;;2.50;2.50;;;;;20.01;40.59;100237.50;5098207;27;61760;-78
2022/04/12 04:40:18;;;;;;;;;5.00;2.00;;;;;19.98;40.48;100245.47;5102201;27;61722;-78
2022/04/12 04:42:45;;;;;;;;;2.25;2.25;;;;;19.94;40.51;100249.03;5099134;27;62025;-78
2022/04/12 04:45:15;;;;;;;;;2.25;2.25;;;;;19.92;40.54;100242.81;5080674;28;63370;-78
2022/04/12 04:48:00;;;;;;;;;2.75;2.00;;;;;19.87;40.27;100235.75;5083791;27;62164;-78
2022/04/12 04:50:30;;;;;;;;;3.25;3.00;;;;;19.88;40.62;100245.50;5102404;27;61767;-78
2022/04/12 04:53:03;;;;;;;;;2.00;2.00;;;;;19.88;40.36;100245.50;5087002;27;61864;-78
2022/04/12 04:55:29;;;;;;;;;3.00;3.00;;;;;19.83;40.23;100253.50;5081108;27;61959;-78
2022/04/12 04:57:57;;;;;;;;;2.00;1.75;;;;;19.82;40.67;100251.75;5081978;28;61942;-79
2022/04/12 05:00:25;;;;;;;;;3.00;2.00;;;;;19.79;40.53;100249.97;5086816;27;61858;-79
2022/04/12 05:02:52;;;;;;;;;3.00;3.00;;;;;19.77;40.39;100253.50;5105476;27;61958;-78
2022/04/12 05:05:19;;;;;;;;;2.25;2.25;;;;;19.73;40.49;100252.66;5090567;27;61992;-79
2022/04/12 05:07:46;;;;;;;;;3.00;3.00;;;;;19.70;40.23;100252.63;5083550;28;61909;-79
2022/04/12 05:10:20;;;;;;;;;3.50;2.00;;;;;19.68;40.71;100259.72;5084891;27;61901;-81
2022/04/12 05:12:46;;;;;;;;;3.00;3.00;;;;;19.65;40.60;100265.06;5085156;27;61817;-81
2022/04/12 05:15:12;;;;;;;;;2.25;2.00;;;;;19.64;40.76;100268.59;5096959;27;62000;-80
2022/04/12 05:17:38;;;;;;;;;3.00;3.00;;;;;19.63;40.65;100276.59;5105216;27;61691;-80
2022/04/12 05:20:09;;;;;;;;;2.75;2.75;;;;;19.64;40.47;100283.69;5093410;27;62178;-81
2022/04/12 05:22:35;;;;;;;;;2.00;1.50;;;;;19.61;40.66;100273.94;5084512;27;62224;-79
2022/04/12 05:25:01;;;;;;;;;3.25;3.25;;;;;19.60;40.67;100278.38;5105471;27;61888;-80
2022/04/12 05:27:33;;;;;;;;;2.00;2.00;;;;;19.60;40.62;100278.38;5104407;27;61783;-79
2022/04/12 05:30:00;;;;;;;;;3.50;2.50;;;;;19.63;41.03;100277.47;5085657;27;62431;-79
2022/04/12 05:32:25;;;;;;;;;3.00;2.00;;;;;19.67;40.76;100278.38;5084967;27;62144;-80
2022/04/12 05:34:52;;;;;;;;;4.00;3.00;;;;;19.69;40.52;100284.56;5102946;27;65011;-81
2022/04/12 05:37:18;;;;;;;;;3.00;3.00;;;;;19.72;40.86;100285.47;5090938;27;62116;-81
2022/04/12 05:39:43;;;;;;;;;3.00;2.00;;;;;19.72;40.41;100287.25;5082940;27;61918;-81
2022/04/12 05:42:09;;;;;;;;;4.00;2.00;;;;;19.77;40.38;100281.06;5083354;27;61807;-81
2022/04/12 05:44:35;;;;;;;;;3.00;3.00;;;;;19.82;40.11;100281.03;5083342;27;61860;-81
2022/04/12 05:47:04;;;;;;;;;2.00;2.00;;;;;19.88;40.01;100283.69;5085396;27;61851;-78
2022/04/12 05:49:31;;;;;;;;;4.00;2.00;;;;;19.93;40.40;100287.22;5083439;27;62378;-79
2022/04/12 05:51:57;;;;;;;;;2.00;2.00;;;;;20.01;40.16;100292.56;5085175;27;62280;-81
2022/04/12 05:54:23;;;;;;;;;4.00;3.00;;;;;20.06;40.18;100295.22;5085476;27;61930;-81
2022/04/12 05:56:49;;;;;;;;;2.00;2.00;;;;;20.10;40.06;100303.19;5083174;27;61890;-81
2022/04/12 05:59:15;;;;;;;;;2.00;2.00;;;;;20.12;40.08;100305.84;5084521;27;61739;-80
2022/04/12 06:01:40;;;;;;;;;3.00;3.00;;;;;20.17;39.91;100299.59;5084340;27;62376;-83
2022/04/12 06:04:06;;;;;;;;;2.50;2.50;;;;;20.21;39.85;100300.50;5099071;27;64046;-80
2022/04/12 06:06:32;;;;;;;;;2.00;2.00;;;;;20.27;39.81;100302.25;5088548;27;61694;-81
2022/04/12 06:08:58;;;;;;;;;2.00;2.00;;;;;20.31;39.57;100301.34;5105088;27;62357;-83
2022/04/12 06:11:24;;;;;;;;;4.00;2.00;;;;;20.38;39.07;100306.66;5097865;27;62068;-82
2022/04/12 06:13:49;;;;;;;;;5.25;2.75;;;;;20.46;38.96;100300.41;5083125;27;62619;-82
2022/04/12 06:16:15;;;;;;;;;2.00;2.00;;;;;20.53;39.31;100316.38;5082518;27;61935;-82
2022/04/12 06:18:40;;;;;;;;;8.50;3.00;;;;;20.60;39.10;100312.81;5081938;28;61988;-85
2022/04/12 06:21:06;;;;;;;;;4.75;3.00;;;;;20.64;38.77;100311.03;5085721;27;61812;-81
2022/04/12 06:23:31;;;;;;;;;5.50;3.00;;;;;20.66;38.96;100313.69;5104022;27;62341;-79
2022/04/12 06:25:57;;;;;;;;;6.00;3.75;;;;;20.70;38.66;100313.69;5103714;27;61836;-78
2022/04/12 06:28:22;;;;;;;;;3.00;2.50;;;;;20.73;38.56;100324.31;5099668;27;62376;-77
2022/04/12 06:30:48;;;;;;;;;5.00;2.00;;;;;20.79;38.31;100318.94;5101055;27;61804;-78
2022/04/12 06:33:14;;;;;;;;;2.00;2.00;;;;;20.83;37.95;100317.16;5093701;27;64009;-74
2022/04/12 06:35:40;;;;;;;;;1.00;1.00;;;;;20.90;37.88;100326.91;5078206;27;62238;-78
2022/04/12 06:38:05;;;;;;;;;3.50;2.00;;;;;20.96;37.85;100334.00;5084683;28;62321;-78
2022/04/12 06:40:31;;;;;;;;;4.50;1.50;;;;;21.01;37.92;100341.06;5086140;27;61934;-78
2022/04/12 06:42:57;;;;;;;;;2.00;2.00;;;;;21.04;37.76;100349.06;5088493;27;63888;-79
2022/04/12 06:45:22;;;;;;;;;3.00;3.00;;;;;21.13;37.40;100352.59;5083800;27;62146;-83
2022/04/12 06:47:53;;;;;;;;;1.00;1.00;;;;;21.23;37.67;100347.19;5082918;27;61909;-75
2022/04/12 06:50:19;;;;;;;;;3.75;2.25;;;;;21.35;37.65;100348.88;5080907;27;61981;-77
2022/04/12 06:52:45;;;;;;;;;4.00;3.00;;;;;21.46;37.18;100351.50;5081770;27;62286;-77
2022/04/12 06:55:10;;;;;;;;;2.00;2.00;;;;;21.59;37.10;100350.50;5082370;27;62130;-78
2022/04/12 06:57:36;;;;;;;;;4.75;3.75;;;;;21.72;36.86;100369.09;5082410;27;61966;-78
2022/04/12 07:00:05;;;;;;;;;3.00;3.00;;;;;21.80;36.64;100376.16;5101754;27;62012;-77
2022/04/12 07:02:30;;;;;;;;;8.50;4.00;;;;;21.86;36.50;100377.91;5081655;27;62246;-77
2022/04/12 07:04:56;;;;;;;;;4.00;2.75;;;;;21.95;36.28;100382.28;5081339;27;61804;-79
2022/04/12 07:07:21;;;;;;;;;3.00;2.00;;;;;21.99;35.80;100376.00;5099053;27;61936;-78
2022/04/12 07:09:46;;;;;;;;;2.00;2.00;;;;;22.19;36.03;100373.13;5064658;27;62070;-79
2022/04/12 07:12:12;;;;;;;;;1.00;1.00;;;;;22.32;35.20;100376.59;5081102;28;61886;-77
2022/04/12 07:14:37;;;;;;;;;6.50;3.00;;;;;22.40;35.35;100380.97;5089539;27;61951;-78
2022/04/12 07:17:03;;;;;;;;;2.50;2.25;;;;;22.52;35.27;100389.78;5079390;27;61923;-76
2022/04/12 07:19:29;;;;;;;;;3.25;2.00;;;;;22.51;34.72;100396.03;5071177;28;61944;-76
2022/04/12 07:21:54;;;;;;;;;2.00;2.00;;;;;22.53;34.96;100400.44;5064998;27;62120;-76
2022/04/12 07:24:20;;;;;;;;;4.50;2.75;;;;;22.57;34.62;100398.63;5082052;28;61725;-76
2022/04/12 07:26:46;;;;;;;;;1.75;1.75;;;;;22.60;34.37;100390.56;5078938;27;61879;-77
2022/04/12 07:29:12;;;;;;;;;2.00;2.00;;;;;22.67;34.37;100378.91;5076636;27;61874;-76
2022/04/12 07:31:37;;;;;;;;;2.50;2.50;;;;;22.69;34.73;100384.22;5064078;27;61962;-76
2022/04/12 07:34:03;;;;;;;;;1.75;1.75;;;;;22.73;34.46;100384.19;5070010;27;62042;-76
2022/04/12 07:36:28;;;;;;;;;2.00;2.00;;;;;22.79;34.38;100384.09;5072363;27;61993;-76
2022/04/12 07:38:54;;;;;;;;;7.00;2.00;;;;;22.82;34.18;100386.75;5068902;27;61739;-76
2022/04/12 07:41:20;;;;;;;;;5.25;2.00;;;;;22.89;34.40;100386.66;5075938;27;63332;-76
2022/04/12 07:43:46;;;;;;;;;2.50;2.50;;;;;22.94;33.95;100387.47;5077224;27;62156;-76
2022/04/12 07:46:12;;;;;;;;;2.00;2.00;;;;;22.99;34.24;100382.97;5093334;27;62180;-78
2022/04/12 07:48:42;;;;;;;;;3.00;2.00;;;;;23.03;33.80;100385.63;5062399;28;61922;-76
2022/04/12 07:51:08;;;;;;;;;2.75;2.00;;;;;23.08;33.62;100393.59;5071830;28;63639;-76
2022/04/12 07:53:34;;;;;;;;;1.50;1.50;;;;;23.13;33.87;100398.88;5073254;28;61862;-76
2022/04/12 07:56:00;;;;;;;;;1.25;1.25;;;;;23.17;33.90;100392.56;5082275;27;61803;-76
2022/04/12 07:58:25;;;;;;;;;4.00;2.25;;;;;23.22;33.64;100391.63;5082120;28;61855;-76
2022/04/12 08:00:51;;;;;;;;;4.00;3.00;;;;;23.27;33.69;100386.19;5081871;27;62364;-75
2022/04/12 08:03:20;;;;;;;;;2.00;2.00;;;;;23.28;33.50;100379.91;5080457;27;62466;-76
2022/04/12 08:05:52;;;;;;;;;2.00;2.00;;;;;23.36;33.63;100388.72;5065900;27;62009;-76
2022/04/12 08:08:20;;;;;;;;;3.75;2.75;;;;;23.49;33.01;100386.75;5065733;27;62205;-76
2022/04/12 08:10:46;;;;;;;;;3.75;2.75;;;;;23.53;33.11;100371.53;5070132;27;64396;-76
2022/04/12 08:13:11;;;;;;;;;3.50;3.50;;;;;23.54;33.32;100379.50;5066163;27;63442;-76
2022/04/12 08:15:46;;;;;;;;;3.00;3.00;;;;;23.58;32.68;100370.53;5075995;27;61984;-76
2022/04/12 08:18:12;;;;;;;;;3.00;3.00;;;;;23.65;33.18;100382.03;5072979;27;62880;-76
2022/04/12 08:20:38;;;;;;;;;3.25;2.75;;;;;23.74;33.17;100375.66;5068103;27;62336;-77
2022/04/12 08:23:03;;;;;;;;;1.00;1.00;;;;;23.80;32.76;100384.53;5070984;27;62608;-75
2022/04/12 08:25:32;;;;;;;;;1.50;1.00;;;;;23.84;32.38;100372.84;5075617;27;61770;-77
2022/04/12 08:27:58;;;;;;;;;4.75;2.00;;;;;23.87;32.12;100382.63;5078854;27;62039;-77
2022/04/12 08:30:24;;;;;;;;;2.00;2.00;;;;;23.81;31.56;100380.91;5065649;27;62042;-77
2022/04/12 08:32:49;;;;;;;;;5.75;1.50;;;;;23.74;32.01;100387.25;5065798;27;62107;-77
2022/04/12 08:35:15;;;;;;;;;3.00;2.00;;;;;23.76;32.05;100384.56;5071395;27;62097;-76
2022/04/12 08:37:41;;;;;;;;;2.00;1.00;;;;;23.84;32.50;100386.25;5063145;27;62094;-77
2022/04/12 08:40:07;;;;;;;;;2.00;2.00;;;;;23.84;32.36;100377.28;5065365;27;62211;-85
2022/04/12 08:42:32;;;;;;;;;1.25;1.25;;;;;23.93;32.33;100378.94;5090428;27;61840;-85
2022/04/12 08:44:58;;;;;;;;;1.50;1.50;;;;;23.99;31.55;100378.81;5078168;27;62769;-84
2022/04/12 08:47:24;;;;;;;;;2.50;2.50;;;;;23.93;31.80;100381.59;5074125;27;62152;-76
2022/04/12 08:49:50;;;;;;;;;1.00;1.00;;;;;23.97;31.49;100397.66;5079594;27;63171;-76
2022/04/12 08:52:20;;;;;;;;;1.50;0.50;;;;;24.06;32.00;100386.75;5087775;27;61962;-76
2022/04/12 08:54:45;;;;;;;;;1.25;1.00;;;;;24.03;32.25;100377.88;5073193;27;61947;-76
2022/04/12 08:57:12;;;;;;;;;2.25;2.00;;;;;24.01;31.85;100383.25;5073463;27;61801;-75
2022/04/12 08:59:39;;;;;;;;;1.50;1.00;;;;;24.04;32.14;100387.69;5079548;28;61755;-75
2022/04/12 09:02:09;;;;;;;;;1.25;1.00;;;;;24.09;32.32;100389.38;5067515;27;62616;-75
2022/04/12 09:04:35;;;;;;;;;2.00;2.00;;;;;23.97;32.05;100391.38;5106638;27;61832;-75
2022/04/12 09:07:01;;;;;;;;;2.50;0.75;;;;;23.93;32.17;100387.88;5089975;27;61810;-75
2022/04/12 09:09:29;;;;;;;;;3.00;1.25;;;;;24.10;31.84;100379.50;5071198;27;62256;-76
2022/04/12 09:12:09;;;;;;;;;1.00;1.00;;;;;24.21;32.20;100382.91;5085880;27;61912;-76
2022/04/12 09:14:39;;;;;;;;;2.25;2.00;;;;;24.17;32.15;100377.63;5069652;27;61781;-76
2022/04/12 09:17:08;;;;;;;;;2.00;2.00;;;;;24.21;31.95;100374.88;5074597;27;62078;-75
2022/04/12 09:19:41;;;;;;;;;3.00;2.00;;;;;24.27;31.74;100376.53;5078556;27;63750;-76
2022/04/12 09:22:11;;;;;;;;;2.00;1.00;;;;;24.30;32.05;100371.13;5072881;27;62011;-76
2022/04/12 09:24:54;;;;;;;;;3.75;1.00;;;;;24.29;31.96;100377.38;5074294;27;61871;-75
2022/04/12 09:27:21;;;;;;;;;1.00;1.00;;;;;24.39;31.43;100372.75;5089994;27;62250;-75
2022/04/12 09:29:54;;;;;;;;;2.00;1.00;;;;;24.36;32.23;100367.41;5061580;27;62852;-76
2022/04/12 09:32:21;;;;;;;;;2.00;1.75;;;;;24.36;31.65;100372.78;5061076;27;62048;-76
2022/04/12 09:34:48;;;;;;;;;1.25;1.25;;;;;24.44;31.84;100370.84;5075730;27;61707;-80
2022/04/12 09:37:25;;;;;;;;;1.00;1.00;;;;;24.53;31.64;100362.66;5060004;27;61760;-78
2022/04/12 09:40:00;;;;;;;;;1.00;0.00;;;;;24.61;32.00;100360.69;5065308;27;62011;-76
2022/04/12 09:42:48;;;;;;;;;1.00;1.00;;;;;24.60;31.81;100364.31;5063963;27;61958;-79
2022/04/12 09:45:27;;;;;;;;;6.25;5.00;;;;;24.61;31.94;100359.81;5064054;27;61809;-76
2022/04/12 09:47:54;;;;;;;;;2.00;1.00;;;;;24.63;31.93;100366.03;5075116;27;62150;-75
2022/04/12 09:50:22;;;;;;;;;3.25;1.75;;;;;24.62;31.60;100351.75;5063529;27;65036;-76
2022/04/12 09:52:56;;;;;;;;;3.50;2.75;;;;;24.66;32.07;100355.25;5076683;27;61746;-75
2022/04/12 09:55:49;;;;;;;;;3.00;3.00;;;;;24.69;31.78;100341.75;5078588;27;62127;-75
2022/04/12 09:58:17;;;;;;;;;1.50;1.50;;;;;24.71;31.81;100345.28;5081182;27;62207;-75
2022/04/12 10:00:47;;;;;;;;;1.00;1.00;;;;;24.79;31.65;100348.72;5096388;27;64095;-75
2022/04/12 10:03:14;;;;;;;;;1.25;1.00;;;;;24.82;31.58;100345.06;5080312;27;62025;-76
2022/04/12 10:05:40;;;;;;;;;2.50;1.00;;;;;24.84;31.76;100365.59;5074848;27;62010;-75
2022/04/12 10:08:11;;;;;;;;;1.50;1.00;;;;;24.83;31.68;100363.84;5086334;27;61802;-74
2022/04/12 10:10:41;;;;;;;;;3.75;2.00;;;;;24.85;31.94;100361.09;5082817;27;63214;-75
2022/04/12 10:13:09;;;;;;;;;0.50;0.50;;;;;24.77;32.33;100355.03;5063956;27;61992;-84
2022/04/12 10:15:35;;;;;;;;;2.00;1.75;;;;;24.85;31.67;100350.34;5065691;27;61913;-76
2022/04/12 10:18:00;;;;;;;;;1.75;1.25;;;;;24.74;32.33;100341.66;5086183;27;61753;-75
2022/04/12 10:20:27;;;;;;;;;1.00;1.00;;;;;24.83;32.19;100328.03;5096307;27;62637;-75
2022/04/12 10:22:53;;;;;;;;;3.25;2.00;;;;;24.94;32.11;100320.66;5079076;27;61899;-75
2022/04/12 10:25:21;;;;;;;;;2.00;1.00;;;;;25.09;32.53;100322.09;5084002;27;61912;-77
2022/04/12 10:27:50;;;;;;;;;2.00;2.00;;;;;25.25;32.18;100311.91;5087193;27;61917;-76
2022/04/12 10:30:15;;;;;;;;;1.00;1.00;;;;;25.45;31.63;100304.25;5084918;27;61834;-72
2022/04/12 10:33:02;;;;;;;;;1.75;1.00;;;;;25.71;31.33;100295.53;5084175;27;61994;-74
2022/04/12 10:35:29;;;;;;;;;2.25;2.00;;;;;25.91;31.30;100297.72;5082980;27;61856;-74
2022/04/12 10:37:59;;;;;;;;;3.25;1.25;;;;;26.07;30.88;100298.19;5082381;27;61738;-74
2022/04/12 10:40:26;;;;;;;;;1.00;1.00;;;;;26.27;30.79;100303.00;5081017;27;63867;-73
2022/04/12 10:42:54;;;;;;;;;0.25;0.25;;;;;26.29;30.62;100301.16;5081890;28;61993;-75
2022/04/12 10:45:30;;;;;;;;;3.75;2.50;;;;;26.35;30.50;100320.75;5095992;27;61836;-76
2022/04/12 10:47:58;;;;;;;;;2.00;1.75;;;;;26.40;30.88;100326.91;5102849;27;61871;-75
2022/04/12 10:50:24;;;;;;;;;1.75;1.25;;;;;26.44;30.67;100336.66;5088556;27;61828;-75
2022/04/12 10:52:49;;;;;;;;;1.00;1.00;;;;;26.50;30.48;100334.66;5073830;27;62012;-75
2022/04/12 10:55:22;;;;;;;;;3.75;2.25;;;;;26.65;30.57;100329.78;5110066;27;62183;-75
2022/04/12 10:57:48;;;;;;;;;2.00;1.00;;;;;26.82;30.14;100324.78;5077754;27;61963;-79
2022/04/12 11:00:14;;;;;;;;;2.25;2.00;;;;;26.99;30.38;100331.47;5098360;27;65058;-77
2022/04/12 11:02:58;;;;;;;;;5.00;2.00;;;;;27.08;30.46;100341.94;5094592;27;61968;-75
2022/04/12 11:05:32;;;;;;;;;2.50;1.25;;;;;26.99;29.74;100347.63;5068793;27;62195;-78
2022/04/12 11:07:59;;;;;;;;;2.00;2.00;;;;;27.11;29.98;100355.34;5080635;27;62275;-81
2022/04/12 11:10:24;;;;;;;;;1.75;1.75;;;;;27.27;30.25;100364.75;5082392;27;61960;-75
2022/04/12 11:13:03;;;;;;;;;3.75;2.00;;;;;27.57;29.49;100367.38;5097171;27;61905;-76
2022/04/12 11:15:30;;;;;;;;;2.50;2.50;;;;;27.78;29.16;100375.69;5090038;27;61854;-75
2022/04/12 11:18:15;;;;;;;;;5.50;2.75;;;;;28.03;29.18;100375.78;5081646;27;61861;-77
2022/04/12 11:20:46;;;;;;;;;5.25;3.00;;;;;28.24;29.29;100374.16;5070484;27;63738;-76
2022/04/12 11:23:13;;;;;;;;;3.25;2.00;;;;;28.42;29.02;100372.63;5067646;27;62041;-77
2022/04/12 11:25:46;;;;;;;;;3.25;3.00;;;;;28.51;28.51;100378.59;5080593;28;61841;-80
2022/04/12 11:28:15;;;;;;;;;5.00;3.50;;;;;28.60;28.25;100374.69;5066344;27;61941;-81